createdAt,value
2017-12-17T00:00:33.313Z,2.82
2017-12-17T00:06:36.919Z,2.84
2017-12-17T00:12:41.226Z,2.85
2017-12-17T00:18:44.782Z,2.88
2017-12-17T00:24:48.288Z,2.89
2017-12-17T00:30:51.979Z,2.87
2017-12-17T00:36:56.371Z,2.89
2017-12-17T00:43:00.026Z,2.86
2017-12-17T00:49:04.447Z,2.89
2017-12-17T00:55:07.992Z,2.87
2017-12-17T01:01:11.526Z,2.79
2017-12-17T01:07:15.041Z,2.74
2017-12-17T01:13:19.394Z,2.76
2017-12-17T01:19:25.022Z,2.79
2017-12-17T01:25:29.607Z,2.79
2017-12-17T01:31:33.251Z,2.77
2017-12-17T01:37:37.529Z,2.67
2017-12-17T01:43:41.807Z,2.52
2017-12-17T01:49:46.057Z,2.26
2017-12-17T01:55:49.610Z,2.20
2017-12-17T02:01:53.390Z,2.24
2017-12-17T02:07:57.796Z,2.32
2017-12-17T02:14:01.451Z,2.33
2017-12-17T02:20:04.946Z,2.36
2017-12-17T02:26:08.688Z,2.34
2017-12-17T02:32:12.270Z,2.33
2017-12-17T02:38:15.838Z,2.33
2017-12-17T02:44:20.122Z,2.34
2017-12-17T02:50:24.733Z,2.38
2017-12-17T02:56:28.315Z,2.27
2017-12-17T03:02:32.614Z,2.18
2017-12-17T03:08:36.862Z,2.11
2017-12-17T03:14:40.351Z,2.10
2017-12-17T03:20:44.623Z,2.12
2017-12-17T03:26:48.888Z,2.08
2017-12-17T03:32:53.922Z,2.14
2017-12-17T03:38:57.451Z,2.13
2017-12-17T03:45:01.205Z,2.15
2017-12-17T03:51:05.532Z,2.19
2017-12-17T03:57:09.035Z,2.20
2017-12-17T04:03:13.534Z,2.23
2017-12-17T04:09:17.018Z,2.25
2017-12-17T04:15:20.996Z,2.22
2017-12-17T04:21:24.670Z,2.23
2017-12-17T04:27:28.961Z,2.25
2017-12-17T04:33:33.251Z,2.27
2017-12-17T04:39:37.556Z,2.26
2017-12-17T04:45:41.173Z,2.23
2017-12-17T04:51:44.804Z,2.27
2017-12-17T04:57:49.184Z,2.29
2017-12-17T05:03:53.431Z,2.29
2017-12-17T05:09:56.986Z,2.32
2017-12-17T05:16:00.721Z,2.33
2017-12-17T05:22:04.218Z,2.34
2017-12-17T05:28:07.856Z,2.36
2017-12-17T05:34:12.872Z,2.34
2017-12-17T05:40:16.401Z,2.38
2017-12-17T05:46:19.914Z,2.38
2017-12-17T05:52:23.815Z,2.40
2017-12-17T05:58:27.434Z,2.42
2017-12-17T06:04:30.995Z,2.39
2017-12-17T06:10:34.572Z,2.44
2017-12-17T06:16:38.231Z,2.42
2017-12-17T06:22:41.901Z,2.40
2017-12-17T06:28:45.399Z,2.43
2017-12-17T06:34:48.904Z,2.43
2017-12-17T06:40:52.850Z,2.42
2017-12-17T06:46:57.071Z,2.39
2017-12-17T06:53:00.612Z,2.40
2017-12-17T06:59:04.384Z,2.37
2017-12-17T07:05:09.041Z,2.35
2017-12-17T07:11:12.595Z,2.35
2017-12-17T07:17:16.094Z,2.35
2017-12-17T07:23:19.669Z,2.17
2017-12-17T07:29:24.326Z,2.22
2017-12-17T07:35:27.866Z,2.23
2017-12-17T07:41:32.133Z,2.10
2017-12-17T07:47:36.417Z,2.02
2017-12-17T07:53:40.776Z,1.97
2017-12-17T07:59:44.265Z,2.06
2017-12-17T08:05:47.759Z,2.13
2017-12-17T08:11:51.327Z,2.09
2017-12-17T08:17:55.636Z,2.17
2017-12-17T08:23:59.150Z,2.22
2017-12-17T08:30:03.423Z,2.18
2017-12-17T08:36:07.696Z,2.16
2017-12-17T08:42:11.195Z,2.15
2017-12-17T08:48:14.684Z,2.26
2017-12-17T08:54:18.528Z,2.32
2017-12-17T09:00:22.094Z,2.39
2017-12-17T09:06:25.885Z,2.44
2017-12-17T09:12:29.480Z,2.48
2017-12-17T09:18:32.996Z,2.50
2017-12-17T09:24:36.594Z,2.55
2017-12-17T09:30:40.089Z,2.54
2017-12-17T09:36:43.687Z,2.58
2017-12-17T09:42:48.070Z,2.64
2017-12-17T09:48:51.596Z,2.78
2017-12-17T09:54:55.471Z,2.99
2017-12-17T10:00:59.867Z,3.08
2017-12-17T10:07:03.451Z,3.13
2017-12-17T10:13:06.953Z,3.20
2017-12-17T10:19:11.476Z,3.20
2017-12-17T10:25:15.018Z,3.20
2017-12-17T10:31:19.529Z,3.24
2017-12-17T10:37:23.640Z,3.19
2017-12-17T10:43:27.336Z,3.21
2017-12-17T10:49:30.983Z,3.27
2017-12-17T10:55:34.789Z,3.28
2017-12-17T11:01:38.278Z,3.32
2017-12-17T11:07:42.568Z,3.30
2017-12-17T11:13:46.079Z,3.17
2017-12-17T11:19:49.593Z,3.24
2017-12-17T11:25:53.360Z,3.23
2017-12-17T11:31:56.886Z,3.39
2017-12-17T11:38:00.690Z,3.40
2017-12-17T11:44:04.231Z,3.34
2017-12-17T11:50:07.760Z,3.28
2017-12-17T11:56:11.242Z,3.23
2017-12-17T12:02:14.835Z,3.22
2017-12-17T12:08:18.888Z,3.20
2017-12-17T12:14:23.080Z,3.17
2017-12-17T12:20:27.680Z,3.16
2017-12-17T12:26:31.178Z,3.29
2017-12-17T12:32:34.716Z,3.19
2017-12-17T12:38:38.237Z,3.19
2017-12-17T12:44:42.590Z,3.20
2017-12-17T12:50:46.181Z,3.17
2017-12-17T12:56:49.708Z,3.20
2017-12-17T13:02:53.436Z,3.26
2017-12-17T13:08:57.347Z,3.47
2017-12-17T13:15:01.614Z,3.64
2017-12-17T13:21:05.898Z,3.58
2017-12-17T13:27:09.724Z,3.59
2017-12-17T13:33:13.321Z,3.49
2017-12-17T13:39:16.962Z,3.32
2017-12-17T13:45:21.234Z,3.22
2017-12-17T13:51:25.169Z,3.27
2017-12-17T13:57:28.671Z,3.34
2017-12-17T14:03:32.463Z,3.23
2017-12-17T14:09:36.220Z,3.15
2017-12-17T14:15:39.736Z,3.09
2017-12-17T14:21:43.301Z,3.05
2017-12-17T14:27:47.093Z,3.05
2017-12-17T14:33:51.069Z,3.06
2017-12-17T14:39:54.792Z,3.01
2017-12-17T14:45:59.440Z,2.97
2017-12-17T14:52:03.699Z,2.96
2017-12-17T14:58:07.198Z,2.96
2017-12-17T15:04:10.694Z,2.96
2017-12-17T15:10:14.199Z,2.93
2017-12-17T15:16:17.714Z,2.95
2017-12-17T15:22:21.276Z,2.95
2017-12-17T15:28:25.570Z,2.88
2017-12-17T15:34:29.827Z,2.86
2017-12-17T15:40:34.103Z,2.89
2017-12-17T15:46:38.551Z,2.92
2017-12-17T15:52:42.078Z,2.90
2017-12-17T15:58:45.639Z,2.84
2017-12-17T16:04:49.172Z,2.86
2017-12-17T16:10:53.326Z,2.81
2017-12-17T16:16:57.116Z,2.80
2017-12-17T16:23:01.578Z,2.74
2017-12-17T16:29:05.086Z,2.73
2017-12-17T16:35:08.790Z,2.73
2017-12-17T16:41:12.309Z,2.70
2017-12-17T16:47:15.866Z,2.68
2017-12-17T16:53:20.325Z,2.67
2017-12-17T16:59:24.793Z,2.59
2017-12-17T17:05:28.393Z,2.56
2017-12-17T17:11:32.695Z,2.53
2017-12-17T17:17:36.207Z,2.47
2017-12-17T17:23:40.481Z,2.36
2017-12-17T17:29:44.743Z,2.26
2017-12-17T17:35:49.024Z,2.11
2017-12-17T17:41:52.771Z,2.09
2017-12-17T17:47:56.604Z,2.13
2017-12-17T17:54:00.131Z,2.21
2017-12-17T18:00:03.784Z,2.09
2017-12-17T18:06:07.571Z,2.01
2017-12-17T18:12:11.108Z,2.01
2017-12-17T18:18:14.621Z,2.14
2017-12-17T18:24:18.224Z,2.08
2017-12-17T18:30:22.741Z,2.13
2017-12-17T18:36:26.449Z,2.10
2017-12-17T18:42:29.984Z,2.18
2017-12-17T18:48:34.322Z,2.31
2017-12-17T18:54:37.873Z,2.38
2017-12-17T19:00:41.416Z,2.48
2017-12-17T19:06:44.917Z,2.53
2017-12-17T19:12:49.211Z,2.54
2017-12-17T19:18:52.876Z,2.59
2017-12-17T19:24:56.783Z,2.62
2017-12-17T19:31:01.868Z,2.64
2017-12-17T19:37:05.394Z,2.65
2017-12-17T19:43:09.044Z,2.62
2017-12-17T19:49:12.585Z,2.57
2017-12-17T19:55:16.115Z,2.59
2017-12-17T20:01:20.989Z,2.56
2017-12-17T20:07:24.849Z,2.49
2017-12-17T20:13:28.456Z,2.32
2017-12-17T20:19:32.161Z,2.31
2017-12-17T20:25:35.706Z,2.28
2017-12-17T20:31:39.222Z,2.29
2017-12-17T20:37:42.741Z,2.32
2017-12-17T20:43:46.372Z,2.36
2017-12-17T20:49:49.984Z,2.35
2017-12-17T20:55:53.800Z,2.27
2017-12-17T21:01:57.391Z,2.22
2017-12-17T21:08:01.669Z,2.10
2017-12-17T21:14:05.902Z,1.94
2017-12-17T21:20:09.361Z,2.10
2017-12-17T21:26:12.833Z,2.16
2017-12-17T21:32:17.071Z,2.24
2017-12-17T21:38:20.568Z,2.27
2017-12-17T21:44:24.296Z,2.25
2017-12-17T21:50:27.894Z,2.28
2017-12-17T21:56:31.382Z,2.39
2017-12-17T22:02:34.870Z,2.44
2017-12-17T22:08:38.438Z,2.48
2017-12-17T22:14:42.694Z,2.46
2017-12-17T22:20:46.263Z,2.33
2017-12-17T22:26:50.958Z,2.30
2017-12-17T22:32:54.719Z,2.23
2017-12-17T22:38:58.990Z,2.17
2017-12-17T22:45:03.234Z,2.14
2017-12-17T22:51:06.842Z,2.03
2017-12-17T22:57:10.345Z,1.87
2017-12-17T23:03:13.816Z,1.78
2017-12-17T23:09:18.088Z,1.69
2017-12-17T23:15:22.475Z,1.69
2017-12-17T23:21:25.967Z,1.64
2017-12-17T23:27:29.623Z,1.58
2017-12-17T23:33:33.109Z,1.54
2017-12-17T23:39:36.778Z,1.50
2017-12-17T23:45:40.234Z,1.45
2017-12-17T23:51:44.746Z,1.52
2017-12-17T23:57:48.206Z,1.51
